Time,TemperatureF,DewpointF,PressureIn,WindDirection,WindDirectionDegrees,WindSpeedMPH,WindSpeedGustMPH,Humidity,HourlyPrecipIn,Conditions,Clouds,dailyrainin,SolarRadiationWatts/m^2,SoftwareType,DateUTC
2013-09-17 00:02:00,53.0,52.0,-100.00,East,101,0.0,3.0,96,0.00,,,0.12,0.000000,,2013-09-17 07:02:00,
2013-09-17 00:11:00,53.0,52.0,-100.00,East,101,0.0,3.0,96,0.00,,,0.12,0.000000,,2013-09-17 07:11:00,
2013-09-17 00:23:00,53.0,52.0,-100.00,East,101,0.0,3.0,96,0.00,,,0.12,0.000000,,2013-09-17 07:23:00,
2013-09-17 00:32:00,53.0,52.0,-100.00,East,101,0.0,3.0,96,0.00,,,0.12,0.000000,,2013-09-17 07:32:00,
2013-09-17 00:52:00,52.0,51.0,-100.00,SSE,160,0.0,2.0,98,0.00,,,0.11,0.000000,,2013-09-17 07:52:00,
2013-09-17 01:02:00,52.0,51.0,-100.00,SSE,160,0.0,2.0,98,0.00,,,0.11,0.000000,,2013-09-17 08:02:00,
2013-09-17 01:12:00,52.0,51.0,-100.00,SSE,160,0.0,2.0,98,0.00,,,0.11,0.000000,,2013-09-17 08:12:00,
2013-09-17 01:22:00,52.0,51.0,-100.00,SSE,160,0.0,2.0,98,0.00,,,0.11,0.000000,,2013-09-17 08:22:00,
2013-09-17 01:31:00,52.0,51.0,-100.00,SSE,160,0.0,2.0,98,0.00,,,0.11,0.000000,,2013-09-17 08:31:00,
2013-09-17 01:33:00,51.0,50.0,-100.00,SSE,166,0.0,3.0,98,0.00,,,0.10,0.000000,,2013-09-17 08:33:00,
2013-09-17 01:52:00,51.0,50.0,-100.00,SSE,166,0.0,3.0,98,0.00,,,0.10,0.000000,,2013-09-17 08:52:00,
2013-09-17 02:02:00,51.0,50.0,-100.00,SSE,166,0.0,3.0,98,0.00,,,0.10,0.000000,,2013-09-17 09:02:00,
2013-09-17 02:12:00,51.0,50.0,-100.00,SSE,166,0.0,3.0,98,0.00,,,0.10,0.000000,,2013-09-17 09:12:00,
2013-09-17 02:22:00,51.0,50.0,-100.00,SSE,166,0.0,3.0,98,0.00,,,0.10,0.000000,,2013-09-17 09:22:00,
2013-09-17 02:53:00,49.0,48.0,-100.00,NW,325,0.0,3.0,98,0.00,,,0.09,0.000000,,2013-09-17 09:53:00,
2013-09-17 03:03:00,49.0,48.0,-100.00,NW,325,0.0,3.0,98,0.00,,,0.09,0.000000,,2013-09-17 10:03:00,
2013-09-17 03:12:00,49.0,48.0,-100.00,NW,325,0.0,3.0,98,0.00,,,0.09,0.000000,,2013-09-17 10:12:00,
2013-09-17 03:23:00,49.0,48.0,-100.00,NW,325,0.0,3.0,98,0.00,,,0.09,0.000000,,2013-09-17 10:23:00,
2013-09-17 03:32:00,49.0,48.0,-100.00,NW,325,0.0,3.0,98,0.00,,,0.09,0.000000,,2013-09-17 10:32:00,
2013-09-17 03:33:00,49.0,48.0,-100.00,NW,318,0.0,2.0,98,0.00,,,0.09,0.000000,,2013-09-17 10:33:00,
2013-09-17 03:53:00,49.0,48.0,-100.00,NW,318,0.0,2.0,98,0.00,,,0.09,0.000000,,2013-09-17 10:53:00,
2013-09-17 04:03:00,49.0,48.0,-100.00,NW,318,0.0,2.0,98,0.00,,,0.09,0.000000,,2013-09-17 11:03:00,
2013-09-17 04:11:00,49.0,48.0,-100.00,NW,318,0.0,2.0,98,0.00,,,0.09,0.000000,,2013-09-17 11:11:00,
2013-09-17 04:22:00,49.0,48.0,-100.00,NW,318,0.0,2.0,98,0.00,,,0.09,0.000000,,2013-09-17 11:22:00,
2013-09-17 04:52:00,49.0,49.0,-100.00,SE,143,0.0,0.0,99,0.00,,,0.08,0.000000,,2013-09-17 11:52:00,
2013-09-17 05:02:00,49.0,49.0,-100.00,SE,143,0.0,0.0,99,0.00,,,0.08,0.000000,,2013-09-17 12:02:00,
2013-09-17 05:12:00,49.0,49.0,-100.00,SE,143,0.0,0.0,99,0.00,,,0.08,0.000000,,2013-09-17 12:12:00,
2013-09-17 05:21:00,49.0,49.0,-100.00,SE,143,0.0,0.0,99,0.00,,,0.08,0.000000,,2013-09-17 12:21:00,
2013-09-17 05:32:00,49.0,49.0,-100.00,SE,143,0.0,0.0,99,0.00,,,0.08,0.000000,,2013-09-17 12:32:00,
2013-09-17 05:52:00,49.0,49.0,-100.00,ESE,110,0.0,3.0,99,0.00,,,0.08,0.000000,,2013-09-17 12:52:00,
2013-09-17 06:02:00,49.0,49.0,-100.00,ESE,110,0.0,3.0,99,0.00,,,0.08,0.000000,,2013-09-17 13:02:00,
2013-09-17 06:11:00,49.0,49.0,-100.00,ESE,110,0.0,3.0,99,0.00,,,0.08,0.000000,,2013-09-17 13:11:00,
2013-09-17 06:22:00,49.0,49.0,-100.00,ESE,110,0.0,3.0,99,0.00,,,0.08,0.000000,,2013-09-17 13:22:00,
2013-09-17 06:32:00,49.0,49.0,-100.00,ESE,110,0.0,3.0,99,0.00,,,0.08,0.000000,,2013-09-17 13:32:00,
2013-09-17 06:52:00,49.0,49.0,-100.00,South,173,0.0,2.0,99,0.00,,,-99.99,0.000000,,2013-09-17 13:52:00,
2013-09-17 07:02:00,49.0,49.0,-100.00,South,173,0.0,2.0,99,0.00,,,-99.99,0.000000,,2013-09-17 14:02:00,
2013-09-17 07:11:00,49.0,49.0,-100.00,South,173,0.0,2.0,99,0.00,,,-99.99,0.000000,,2013-09-17 14:11:00,
2013-09-17 07:21:00,49.0,49.0,-100.00,South,173,0.0,2.0,99,0.00,,,-99.99,0.000000,,2013-09-17 14:21:00,
2013-09-17 07:32:00,49.0,49.0,-100.00,South,173,0.0,2.0,99,0.00,,,-99.99,0.000000,,2013-09-17 14:32:00,
2013-09-17 07:33:00,49.0,49.0,-100.00,East,79,0.0,1.0,99,0.00,,,0.08,8.000000,,2013-09-17 14:33:00,
2013-09-17 07:52:00,49.0,49.0,-100.00,East,79,0.0,1.0,99,0.00,,,0.08,8.000000,,2013-09-17 14:52:00,
2013-09-17 08:02:00,49.0,49.0,-100.00,East,79,0.0,1.0,99,0.00,,,0.08,8.000000,,2013-09-17 15:02:00,
2013-09-17 08:11:00,49.0,49.0,-100.00,East,79,0.0,1.0,99,0.00,,,0.08,8.000000,,2013-09-17 15:11:00,
2013-09-17 08:22:00,49.0,49.0,-100.00,East,79,0.0,1.0,99,0.00,,,0.08,8.000000,,2013-09-17 15:22:00,
2013-09-17 08:53:00,52.0,51.0,-100.00,NE,46,0.0,4.0,98,0.00,,,0.07,53.000000,,2013-09-17 15:53:00,
2013-09-17 09:03:00,52.0,51.0,-100.00,NE,46,0.0,4.0,98,0.00,,,0.07,53.000000,,2013-09-17 16:03:00,
2013-09-17 09:12:00,52.0,51.0,-100.00,NE,46,0.0,4.0,98,0.00,,,0.07,53.000000,,2013-09-17 16:12:00,
2013-09-17 09:23:00,52.0,51.0,-100.00,NE,46,0.0,4.0,98,0.00,,,0.07,53.000000,,2013-09-17 16:23:00,
2013-09-17 09:32:00,52.0,51.0,-100.00,NE,46,0.0,4.0,98,0.00,,,0.07,53.000000,,2013-09-17 16:32:00,
2013-09-17 09:33:00,56.0,52.0,-100.00,ENE,70,1.0,3.0,87,0.00,,,0.06,213.000000,,2013-09-17 16:33:00,
2013-09-17 09:54:00,56.0,52.0,-100.00,ENE,70,1.0,3.0,87,0.00,,,0.06,213.000000,,2013-09-17 16:54:00,
2013-09-17 10:03:00,56.0,52.0,-100.00,ENE,70,1.0,3.0,87,0.00,,,0.06,213.000000,,2013-09-17 17:03:00,
2013-09-17 10:12:00,56.0,52.0,-100.00,ENE,70,1.0,3.0,87,0.00,,,0.06,213.000000,,2013-09-17 17:12:00,
2013-09-17 10:23:00,56.0,52.0,-100.00,ENE,70,1.0,3.0,87,0.00,,,0.06,213.000000,,2013-09-17 17:23:00,
2013-09-17 11:21:00,63.0,55.0,-100.00,NNW,334,2.0,5.0,74,0.00,,,0.06,505.000000,,2013-09-17 18:21:00,
2013-09-17 11:32:00,63.0,55.0,-100.00,NNW,334,2.0,5.0,74,0.00,,,0.06,505.000000,,2013-09-17 18:32:00,
2013-09-17 11:52:00,62.0,54.0,-100.00,West,264,3.0,9.0,74,-99.99,,,0.03,304.000000,,2013-09-17 18:52:00,
2013-09-17 12:02:00,62.0,54.0,-100.00,West,264,3.0,9.0,74,-99.99,,,0.03,304.000000,,2013-09-17 19:02:00,
2013-09-17 12:11:00,62.0,54.0,-100.00,West,264,3.0,9.0,74,-99.99,,,0.03,304.000000,,2013-09-17 19:11:00,
2013-09-17 12:21:00,62.0,54.0,-100.00,West,264,3.0,9.0,74,-99.99,,,0.03,304.000000,,2013-09-17 19:21:00,
2013-09-17 12:32:00,62.0,54.0,-100.00,West,264,3.0,9.0,74,-99.99,,,0.03,304.000000,,2013-09-17 19:32:00,
2013-09-17 12:52:00,63.0,53.0,-100.00,WNW,300,2.0,8.0,70,0.00,,,0.00,325.000000,,2013-09-17 19:52:00,
2013-09-17 13:02:00,63.0,53.0,-100.00,WNW,300,2.0,8.0,70,0.00,,,0.00,325.000000,,2013-09-17 20:02:00,
2013-09-17 13:11:00,63.0,53.0,-100.00,WNW,300,2.0,8.0,70,0.00,,,0.00,325.000000,,2013-09-17 20:11:00,
2013-09-17 13:22:00,63.0,53.0,-100.00,WNW,300,2.0,8.0,70,0.00,,,0.00,325.000000,,2013-09-17 20:22:00,
2013-09-17 13:32:00,63.0,53.0,-100.00,WNW,300,2.0,8.0,70,0.00,,,0.00,325.000000,,2013-09-17 20:32:00,
2013-09-17 13:33:00,65.0,53.0,-100.00,West,271,3.0,9.0,66,0.00,,,0.00,367.000000,,2013-09-17 20:33:00,
2013-09-17 13:52:00,65.0,53.0,-100.00,West,271,3.0,9.0,66,0.00,,,0.00,367.000000,,2013-09-17 20:52:00,
2013-09-17 14:01:00,65.0,53.0,-100.00,West,271,3.0,9.0,66,0.00,,,0.00,367.000000,,2013-09-17 21:01:00,
2013-09-17 14:12:00,65.0,53.0,-100.00,West,271,3.0,9.0,66,0.00,,,0.00,367.000000,,2013-09-17 21:12:00,
2013-09-17 14:22:00,65.0,53.0,-100.00,West,271,3.0,9.0,66,0.00,,,0.00,367.000000,,2013-09-17 21:22:00,
2013-09-17 14:33:00,66.0,53.0,-100.00,West,273,4.0,11.0,62,0.00,,,0.00,454.000000,,2013-09-17 21:33:00,
2013-09-17 14:54:00,66.0,53.0,-100.00,West,273,4.0,11.0,62,0.00,,,0.00,454.000000,,2013-09-17 21:54:00,
2013-09-17 15:04:00,66.0,53.0,-100.00,West,273,4.0,11.0,62,0.00,,,0.00,454.000000,,2013-09-17 22:04:00,
2013-09-17 15:13:00,66.0,53.0,-100.00,West,273,4.0,11.0,62,0.00,,,0.00,454.000000,,2013-09-17 22:13:00,
2013-09-17 15:24:00,66.0,53.0,-100.00,West,273,4.0,11.0,62,0.00,,,0.00,454.000000,,2013-09-17 22:24:00,
2013-09-17 15:33:00,66.0,52.0,-100.00,West,276,5.0,11.0,61,0.00,,,0.00,479.000000,,2013-09-17 22:33:00,
2013-09-17 15:53:00,66.0,52.0,-100.00,West,276,5.0,11.0,61,0.00,,,0.00,479.000000,,2013-09-17 22:53:00,
2013-09-17 16:03:00,66.0,52.0,-100.00,West,276,5.0,11.0,61,0.00,,,0.00,479.000000,,2013-09-17 23:03:00,
2013-09-17 16:12:00,66.0,52.0,-100.00,West,276,5.0,11.0,61,0.00,,,0.00,479.000000,,2013-09-17 23:12:00,
2013-09-17 16:21:00,66.0,52.0,-100.00,West,276,5.0,11.0,61,0.00,,,0.00,479.000000,,2013-09-17 23:21:00,
2013-09-17 16:52:00,64.0,52.0,-100.00,WNW,291,3.0,10.0,64,0.00,,,0.00,338.000000,,2013-09-17 23:52:00,
2013-09-17 17:02:00,64.0,52.0,-100.00,WNW,291,3.0,10.0,64,0.00,,,0.00,338.000000,,2013-09-18 00:02:00,
2013-09-17 17:11:00,64.0,52.0,-100.00,WNW,291,3.0,10.0,64,0.00,,,0.00,338.000000,,2013-09-18 00:11:00,
2013-09-17 17:22:00,64.0,52.0,-100.00,WNW,291,3.0,10.0,64,0.00,,,0.00,338.000000,,2013-09-18 00:22:00,
2013-09-17 17:32:00,64.0,52.0,-100.00,WNW,291,3.0,10.0,64,0.00,,,0.00,338.000000,,2013-09-18 00:32:00,
2013-09-17 17:52:00,62.0,52.0,-100.00,NW,319,2.0,9.0,69,0.00,,,0.00,195.000000,,2013-09-18 00:52:00,
2013-09-17 18:01:00,62.0,52.0,-100.00,NW,319,2.0,9.0,69,0.00,,,0.00,195.000000,,2013-09-18 01:01:00,
2013-09-17 18:11:00,62.0,52.0,-100.00,NW,319,2.0,9.0,69,0.00,,,0.00,195.000000,,2013-09-18 01:11:00,
2013-09-17 18:21:00,62.0,52.0,-100.00,NW,319,2.0,9.0,69,0.00,,,0.00,195.000000,,2013-09-18 01:21:00,
2013-09-17 18:32:00,62.0,52.0,-100.00,NW,319,2.0,9.0,69,0.00,,,0.00,195.000000,,2013-09-18 01:32:00,
2013-09-17 18:52:00,61.0,52.0,-100.00,West,277,2.0,12.0,72,0.00,,,0.00,120.000000,,2013-09-18 01:52:00,
2013-09-17 19:03:00,61.0,52.0,-100.00,West,277,2.0,12.0,72,0.00,,,0.00,120.000000,,2013-09-18 02:03:00,
2013-09-17 19:11:00,61.0,52.0,-100.00,West,277,2.0,12.0,72,0.00,,,0.00,120.000000,,2013-09-18 02:11:00,
2013-09-17 19:22:00,61.0,52.0,-100.00,West,277,2.0,12.0,72,0.00,,,0.00,120.000000,,2013-09-18 02:22:00,
2013-09-17 19:32:00,61.0,52.0,-100.00,West,277,2.0,12.0,72,0.00,,,0.00,120.000000,,2013-09-18 02:32:00,
2013-09-17 19:33:00,58.0,54.0,-100.00,WSW,239,0.0,7.0,85,0.00,,,0.00,21.000000,,2013-09-18 02:33:00,
2013-09-17 19:52:00,58.0,54.0,-100.00,WSW,239,0.0,7.0,85,0.00,,,0.00,21.000000,,2013-09-18 02:52:00,
2013-09-17 20:02:00,58.0,54.0,-100.00,WSW,239,0.0,7.0,85,0.00,,,0.00,21.000000,,2013-09-18 03:02:00,
2013-09-17 20:11:00,58.0,54.0,-100.00,WSW,239,0.0,7.0,85,0.00,,,0.00,21.000000,,2013-09-18 03:11:00,
2013-09-17 20:23:00,58.0,54.0,-100.00,WSW,239,0.0,7.0,85,0.00,,,0.00,21.000000,,2013-09-18 03:23:00,
2013-09-17 20:33:00,56.0,54.0,-100.00,SW,236,0.0,0.0,92,0.00,,,0.00,0.000000,,2013-09-18 03:33:00,
2013-09-17 20:55:00,56.0,54.0,-100.00,SW,236,0.0,0.0,92,0.00,,,0.00,0.000000,,2013-09-18 03:55:00,
2013-09-17 21:04:00,56.0,54.0,-100.00,SW,236,0.0,0.0,92,0.00,,,0.00,0.000000,,2013-09-18 04:04:00,
2013-09-17 21:14:00,56.0,54.0,-100.00,SW,236,0.0,0.0,92,0.00,,,0.00,0.000000,,2013-09-18 04:14:00,
2013-09-17 21:24:00,56.0,54.0,-100.00,SW,236,0.0,0.0,92,0.00,,,0.00,0.000000,,2013-09-18 04:24:00,
2013-09-17 21:33:00,54.0,52.0,-100.00,WSW,237,0.0,0.0,94,0.00,,,0.00,0.000000,,2013-09-18 04:33:00,
2013-09-17 21:54:00,54.0,52.0,-100.00,WSW,237,0.0,0.0,94,0.00,,,0.00,0.000000,,2013-09-18 04:54:00,
2013-09-17 22:04:00,54.0,52.0,-100.00,WSW,237,0.0,0.0,94,0.00,,,0.00,0.000000,,2013-09-18 05:04:00,
2013-09-17 22:12:00,54.0,52.0,-100.00,WSW,237,0.0,0.0,94,0.00,,,0.00,0.000000,,2013-09-18 05:12:00,
2013-09-17 22:23:00,54.0,52.0,-100.00,WSW,237,0.0,0.0,94,0.00,,,0.00,0.000000,,2013-09-18 05:23:00,
2013-09-17 22:33:00,53.0,52.0,-100.00,SW,236,0.0,0.0,96,0.00,,,0.00,0.000000,,2013-09-18 05:33:00,
2013-09-17 22:53:00,53.0,52.0,-100.00,SW,236,0.0,0.0,96,0.00,,,0.00,0.000000,,2013-09-18 05:53:00,
2013-09-17 23:02:00,53.0,52.0,-100.00,SW,236,0.0,0.0,96,0.00,,,0.00,0.000000,,2013-09-18 06:02:00,
2013-09-17 23:12:00,53.0,52.0,-100.00,SW,236,0.0,0.0,96,0.00,,,0.00,0.000000,,2013-09-18 06:12:00,
2013-09-17 23:22:00,53.0,52.0,-100.00,SW,236,0.0,0.0,96,0.00,,,0.00,0.000000,,2013-09-18 06:22:00,
2013-09-17 23:52:00,52.0,51.0,-100.00,SSE,150,1.0,3.0,97,0.00,,,0.00,0.000000,,2013-09-18 06:52:00,